sensor_id;sensor_type;location;lat;lon;timestamp;pressure;altitude;pressure_sealevel;temperature;humidity
71974;BME280;59840;52.122;5.404;2022-10-16T00:01:04;101071.78;;;11.69;91.17
71974;BME280;59840;52.122;5.404;2022-10-16T00:07:30;101063.06;;;11.68;90.96
71974;BME280;59840;52.122;5.404;2022-10-16T00:09:56;101066.19;;;11.65;90.99
71974;BME280;59840;52.122;5.404;2022-10-16T00:12:23;101057.47;;;11.65;91.00
71974;BME280;59840;52.122;5.404;2022-10-16T00:14:51;101068.28;;;11.63;90.78
71974;BME280;59840;52.122;5.404;2022-10-16T00:21:18;101070.13;;;11.63;91.17
71974;BME280;59840;52.122;5.404;2022-10-16T00:24:19;101073.56;;;11.63;90.89
71974;BME280;59840;52.122;5.404;2022-10-16T00:26:45;101076.19;;;11.63;91.02
71974;BME280;59840;52.122;5.404;2022-10-16T00:29:15;101074.34;;;11.64;91.02
71974;BME280;59840;52.122;5.404;2022-10-16T00:31:55;101076.28;;;11.68;91.30
71974;BME280;59840;52.122;5.404;2022-10-16T00:38:56;101062.94;;;11.80;90.75
71974;BME280;59840;52.122;5.404;2022-10-16T00:45:32;101063.25;;;11.84;90.72
71974;BME280;59840;52.122;5.404;2022-10-16T00:52:10;101067.56;;;11.90;90.47
71974;BME280;59840;52.122;5.404;2022-10-16T00:54:37;101068.09;;;11.92;90.68
71974;BME280;59840;52.122;5.404;2022-10-16T00:57:05;101069.47;;;11.94;90.56
71974;BME280;59840;52.122;5.404;2022-10-16T00:59:41;101075.31;;;11.96;90.50
71974;BME280;59840;52.122;5.404;2022-10-16T01:02:11;101072.97;;;12.00;90.51
71974;BME280;59840;52.122;5.404;2022-10-16T01:04:56;101074.31;;;12.02;90.58
71974;BME280;59840;52.122;5.404;2022-10-16T01:13:41;101081.81;;;12.11;90.46
71974;BME280;59840;52.122;5.404;2022-10-16T01:16:34;101080.25;;;12.15;90.45
71974;BME280;59840;52.122;5.404;2022-10-16T01:22:01;101083.75;;;12.20;90.51
71974;BME280;59840;52.122;5.404;2022-10-16T01:24:48;101068.44;;;12.22;90.45
71974;BME280;59840;52.122;5.404;2022-10-16T01:30:58;101074.03;;;12.26;90.38
71974;BME280;59840;52.122;5.404;2022-10-16T01:33:38;101079.63;;;12.29;89.97
71974;BME280;59840;52.122;5.404;2022-10-16T01:37:18;101075.13;;;12.30;90.43
71974;BME280;59840;52.122;5.404;2022-10-16T01:39:48;101070.38;;;12.32;90.39
71974;BME280;59840;52.122;5.404;2022-10-16T01:42:21;101075.69;;;12.32;90.13
71974;BME280;59840;52.122;5.404;2022-10-16T01:44:51;101078.34;;;12.32;90.31
71974;BME280;59840;52.122;5.404;2022-10-16T01:47:22;101075.69;;;12.32;90.22
71974;BME280;59840;52.122;5.404;2022-10-16T01:49:52;101073.03;;;12.32;90.60
71974;BME280;59840;52.122;5.404;2022-10-16T01:55:49;101071.75;;;12.34;90.33
71974;BME280;59840;52.122;5.404;2022-10-16T01:58:16;101062.75;;;12.35;90.51
71974;BME280;59840;52.122;5.404;2022-10-16T02:01:02;101063.56;;;12.36;90.62
71974;BME280;59840;52.122;5.404;2022-10-16T02:03:32;101066.44;;;12.34;90.67
71974;BME280;59840;52.122;5.404;2022-10-16T02:06:00;101061.97;;;12.35;90.75
71974;BME280;59840;52.122;5.404;2022-10-16T02:08:28;101061.97;;;12.35;90.61
71974;BME280;59840;52.122;5.404;2022-10-16T02:10:57;101067.25;;;12.35;90.59
71974;BME280;59840;52.122;5.404;2022-10-16T02:13:29;101068.31;;;12.34;90.93
71974;BME280;59840;52.122;5.404;2022-10-16T02:15:58;101067.75;;;12.32;90.99
71974;BME280;59840;52.122;5.404;2022-10-16T02:18:25;101064.84;;;12.33;90.71
71974;BME280;59840;52.122;5.404;2022-10-16T02:24:54;101068.53;;;12.32;91.20
71974;BME280;59840;52.122;5.404;2022-10-16T02:31:08;101076.19;;;12.29;91.11
71974;BME280;59840;52.122;5.404;2022-10-16T02:33:43;101077.47;;;12.26;91.49
71974;BME280;59840;52.122;5.404;2022-10-16T02:36:12;101070.03;;;12.23;91.30
71974;BME280;59840;52.122;5.404;2022-10-16T02:38:39;101065.47;;;12.19;91.58
71974;BME280;59840;52.122;5.404;2022-10-16T02:41:06;101072.31;;;12.15;91.64
71974;BME280;59840;52.122;5.404;2022-10-16T02:43:33;101081.31;;;12.14;91.81
71974;BME280;59840;52.122;5.404;2022-10-16T02:46:24;101081.81;;;12.11;92.09
71974;BME280;59840;52.122;5.404;2022-10-16T02:48:50;101079.44;;;12.09;92.14
71974;BME280;59840;52.122;5.404;2022-10-16T02:51:17;101079.66;;;12.07;92.16
71974;BME280;59840;52.122;5.404;2022-10-16T02:53:58;101086.81;;;12.07;92.30
71974;BME280;59840;52.122;5.404;2022-10-16T02:56:25;101088.72;;;12.12;92.28
71974;BME280;59840;52.122;5.404;2022-10-16T02:58:51;101091.34;;;12.12;92.33
71974;BME280;59840;52.122;5.404;2022-10-16T03:01:18;101092.41;;;12.11;92.34
71974;BME280;59840;52.122;5.404;2022-10-16T03:03:44;101089.75;;;12.11;92.31
71974;BME280;59840;52.122;5.404;2022-10-16T03:06:11;101094.53;;;12.14;92.36
71974;BME280;59840;52.122;5.404;2022-10-16T03:08:37;101097.72;;;12.16;92.45
71974;BME280;59840;52.122;5.404;2022-10-16T03:11:04;101093.00;;;12.18;92.65
71974;BME280;59840;52.122;5.404;2022-10-16T03:13:30;101080.56;;;12.18;92.45
71974;BME280;59840;52.122;5.404;2022-10-16T03:16:00;101084.81;;;12.19;92.51
71974;BME280;59840;52.122;5.404;2022-10-16T03:22:33;101078.94;;;12.12;92.34
71974;BME280;59840;52.122;5.404;2022-10-16T03:24:59;101080.72;;;12.06;92.80
71974;BME280;59840;52.122;5.404;2022-10-16T03:27:26;101088.09;;;12.04;93.05
71974;BME280;59840;52.122;5.404;2022-10-16T03:29:53;101091.22;;;12.01;93.04
71974;BME280;59840;52.122;5.404;2022-10-16T03:32:19;101090.94;;;11.98;93.20
71974;BME280;59840;52.122;5.404;2022-10-16T03:34:46;101093.81;;;11.96;93.34
71974;BME280;59840;52.122;5.404;2022-10-16T03:37:12;101105.44;;;11.95;93.55
71974;BME280;59840;52.122;5.404;2022-10-16T03:39:39;101091.19;;;11.96;93.57
71974;BME280;59840;52.122;5.404;2022-10-16T03:42:05;101105.44;;;11.95;93.80
71974;BME280;59840;52.122;5.404;2022-10-16T03:44:32;101111.78;;;11.94;93.67
71974;BME280;59840;52.122;5.404;2022-10-16T03:46:58;101112.25;;;11.91;93.88
71974;BME280;59840;52.122;5.404;2022-10-16T03:49:25;101111.16;;;11.87;93.82
71974;BME280;59840;52.122;5.404;2022-10-16T03:51:51;101107.41;;;11.83;93.98
71974;BME280;59840;52.122;5.404;2022-10-16T03:54:18;101114.22;;;11.79;94.14
71974;BME280;59840;52.122;5.404;2022-10-16T03:56:44;101108.63;;;11.75;94.17
71974;BME280;59840;52.122;5.404;2022-10-16T03:59:11;101119.44;;;11.74;94.43
71974;BME280;59840;52.122;5.404;2022-10-16T04:01:37;101113.34;;;11.73;94.41
71974;BME280;59840;52.122;5.404;2022-10-16T04:04:03;101118.97;;;11.77;94.56
71974;BME280;59840;52.122;5.404;2022-10-16T04:06:31;101121.84;;;11.75;94.46
71974;BME280;59840;52.122;5.404;2022-10-16T04:08:57;101126.31;;;11.75;94.43
71974;BME280;59840;52.122;5.404;2022-10-16T04:11:24;101125.75;;;11.73;94.44
71974;BME280;59840;52.122;5.404;2022-10-16T04:13:50;101121.75;;;11.70;94.64
71974;BME280;59840;52.122;5.404;2022-10-16T04:16:17;101132.59;;;11.69;94.60
71974;BME280;59840;52.122;5.404;2022-10-16T04:18:43;101132.59;;;11.69;94.77
71974;BME280;59840;52.122;5.404;2022-10-16T04:21:10;101141.31;;;11.69;94.85
71974;BME280;59840;52.122;5.404;2022-10-16T04:23:57;101141.06;;;11.71;94.72
71974;BME280;59840;52.122;5.404;2022-10-16T04:26:23;101149.81;;;11.71;94.71
71974;BME280;59840;52.122;5.404;2022-10-16T04:28:50;101154.03;;;11.72;94.51
71974;BME280;59840;52.122;5.404;2022-10-16T04:31:16;101158.53;;;11.72;94.60
71974;BME280;59840;52.122;5.404;2022-10-16T04:33:43;101156.94;;;11.71;94.75
71974;BME280;59840;52.122;5.404;2022-10-16T04:36:10;101153.47;;;11.70;94.73
71974;BME280;59840;52.122;5.404;2022-10-16T04:39:12;101156.13;;;11.70;94.75
71974;BME280;59840;52.122;5.404;2022-10-16T04:41:38;101166.69;;;11.70;94.77
71974;BME280;59840;52.122;5.404;2022-10-16T04:44:05;101172.78;;;11.71;94.75
71974;BME280;59840;52.122;5.404;2022-10-16T04:46:56;101168.53;;;11.70;94.87
71974;BME280;59840;52.122;5.404;2022-10-16T04:49:23;101174.63;;;11.70;94.81
71974;BME280;59840;52.122;5.404;2022-10-16T04:51:49;101178.88;;;11.71;95.03
71974;BME280;59840;52.122;5.404;2022-10-16T04:54:18;101188.16;;;11.74;95.23
71974;BME280;59840;52.122;5.404;2022-10-16T04:56:44;101193.00;;;11.77;94.82
71974;BME280;59840;52.122;5.404;2022-10-16T04:59:18;101189.78;;;11.75;94.83
71974;BME280;59840;52.122;5.404;2022-10-16T05:01:45;101193.44;;;11.74;94.74
71974;BME280;59840;52.122;5.404;2022-10-16T05:04:15;101192.91;;;11.72;94.71
71974;BME280;59840;52.122;5.404;2022-10-16T05:06:42;101200.50;;;11.68;94.98
71974;BME280;59840;52.122;5.404;2022-10-16T05:09:09;101189.38;;;11.66;94.87
71974;BME280;59840;52.122;5.404;2022-10-16T05:11:35;101201.22;;;11.64;95.26
71974;BME280;59840;52.122;5.404;2022-10-16T05:14:02;101198.28;;;11.60;94.90
71974;BME280;59840;52.122;5.404;2022-10-16T05:16:29;101206.19;;;11.60;95.52
71974;BME280;59840;52.122;5.404;2022-10-16T05:19:27;101212.53;;;11.59;95.10
71974;BME280;59840;52.122;5.404;2022-10-16T05:21:54;101216.44;;;11.57;95.11
71974;BME280;59840;52.122;5.404;2022-10-16T05:24:21;101222.78;;;11.56;95.34
71974;BME280;59840;52.122;5.404;2022-10-16T05:26:47;101220.38;;;11.54;95.25
71974;BME280;59840;52.122;5.404;2022-10-16T05:29:23;101230.13;;;11.54;95.22
71974;BME280;59840;52.122;5.404;2022-10-16T05:31:53;101225.34;;;11.51;95.51
71974;BME280;59840;52.122;5.404;2022-10-16T05:34:25;101224.78;;;11.49;95.70
71974;BME280;59840;52.122;5.404;2022-10-16T05:36:52;101232.69;;;11.49;95.58
71974;BME280;59840;52.122;5.404;2022-10-16T05:39:19;101238.53;;;11.51;95.65
71974;BME280;59840;52.122;5.404;2022-10-16T05:41:45;101246.47;;;11.51;95.56
71974;BME280;59840;52.122;5.404;2022-10-16T05:44:20;101250.72;;;11.52;95.52
71974;BME280;59840;52.122;5.404;2022-10-16T05:47:24;101259.22;;;11.54;95.71
71974;BME280;59840;52.122;5.404;2022-10-16T05:49:50;101261.38;;;11.57;95.72
71974;BME280;59840;52.122;5.404;2022-10-16T05:52:17;101259.84;;;11.61;95.74
71974;BME280;59840;52.122;5.404;2022-10-16T05:54:44;101268.09;;;11.64;95.80
71974;BME280;59840;52.122;5.404;2022-10-16T05:57:10;101276.38;;;11.68;95.73
71974;BME280;59840;52.122;5.404;2022-10-16T05:59:37;101288.06;;;11.72;95.56
71974;BME280;59840;52.122;5.404;2022-10-16T06:02:04;101274.84;;;11.72;95.57
71974;BME280;59840;52.122;5.404;2022-10-16T06:04:30;101281.50;;;11.74;95.55
71974;BME280;59840;52.122;5.404;2022-10-16T06:07:00;101279.97;;;11.79;95.53
71974;BME280;59840;52.122;5.404;2022-10-16T06:09:29;101284.22;;;11.80;95.48
71974;BME280;59840;52.122;5.404;2022-10-16T06:11:55;101287.66;;;11.80;95.63
71974;BME280;59840;52.122;5.404;2022-10-16T06:14:22;101291.69;;;11.83;95.43
71974;BME280;59840;52.122;5.404;2022-10-16T06:16:48;101284.53;;;11.83;95.28
71974;BME280;59840;52.122;5.404;2022-10-16T06:19:15;101299.13;;;11.86;95.17
71974;BME280;59840;52.122;5.404;2022-10-16T06:21:42;101303.13;;;11.88;95.22
71974;BME280;59840;52.122;5.404;2022-10-16T06:24:09;101303.69;;;11.90;95.05
71974;BME280;59840;52.122;5.404;2022-10-16T06:26:37;101313.00;;;11.93;95.38
71974;BME280;59840;52.122;5.404;2022-10-16T06:29:04;101317.56;;;11.97;95.22
71974;BME280;59840;52.122;5.404;2022-10-16T06:31:31;101316.03;;;12.01;94.95
71974;BME280;59840;52.122;5.404;2022-10-16T06:34:00;101323.25;;;12.06;94.67
71974;BME280;59840;52.122;5.404;2022-10-16T06:36:26;101322.78;;;12.09;94.77
71974;BME280;59840;52.122;5.404;2022-10-16T06:38:53;101315.88;;;12.08;94.61
71974;BME280;59840;52.122;5.404;2022-10-16T06:41:21;101323.00;;;12.07;94.66
71974;BME280;59840;52.122;5.404;2022-10-16T06:43:48;101337.84;;;12.08;94.66
71974;BME280;59840;52.122;5.404;2022-10-16T06:46:17;101339.44;;;12.10;94.97
71974;BME280;59840;52.122;5.404;2022-10-16T06:48:44;101346.09;;;12.12;94.95
71974;BME280;59840;52.122;5.404;2022-10-16T06:51:13;101356.41;;;12.14;95.13
71974;BME280;59840;52.122;5.404;2022-10-16T06:53:49;101358.81;;;12.15;94.65
71974;BME280;59840;52.122;5.404;2022-10-16T06:56:32;101352.25;;;12.18;94.63
71974;BME280;59840;52.122;5.404;2022-10-16T06:59:00;101357.84;;;12.21;94.76
71974;BME280;59840;52.122;5.404;2022-10-16T07:01:27;101352.09;;;12.24;94.73
71974;BME280;59840;52.122;5.404;2022-10-16T07:03:54;101359.78;;;12.26;94.64
71974;BME280;59840;52.122;5.404;2022-10-16T07:06:24;101351.34;;;12.29;94.30
71974;BME280;59840;52.122;5.404;2022-10-16T07:08:51;101346.38;;;12.32;94.29
71974;BME280;59840;52.122;5.404;2022-10-16T07:11:20;101358.66;;;12.38;94.15
71974;BME280;59840;52.122;5.404;2022-10-16T07:13:48;101359.28;;;12.46;93.93
71974;BME280;59840;52.122;5.404;2022-10-16T07:16:23;101366.78;;;12.54;93.66
71974;BME280;59840;52.122;5.404;2022-10-16T07:18:50;101361.81;;;12.57;93.49
71974;BME280;59840;52.122;5.404;2022-10-16T07:21:21;101371.91;;;12.60;93.21
71974;BME280;59840;52.122;5.404;2022-10-16T07:23:53;101382.25;;;12.62;93.05
71974;BME280;59840;52.122;5.404;2022-10-16T07:26:20;101388.09;;;12.64;92.96
71974;BME280;59840;52.122;5.404;2022-10-16T07:28:47;101389.47;;;12.66;92.46
71974;BME280;59840;52.122;5.404;2022-10-16T07:31:15;101400.94;;;12.72;92.28
71974;BME280;59840;52.122;5.404;2022-10-16T07:33:42;101391.22;;;12.78;92.18
71974;BME280;59840;52.122;5.404;2022-10-16T07:36:11;101402.41;;;12.85;91.85
71974;BME280;59840;52.122;5.404;2022-10-16T07:38:42;101407.78;;;12.90;91.65
71974;BME280;59840;52.122;5.404;2022-10-16T07:41:10;101411.22;;;12.90;90.87
71974;BME280;59840;52.122;5.404;2022-10-16T07:43:37;101408.56;;;12.90;90.84
71974;BME280;59840;52.122;5.404;2022-10-16T07:46:04;101421.00;;;12.90;90.91
71974;BME280;59840;52.122;5.404;2022-10-16T07:48:33;101427.13;;;12.90;91.15
71974;BME280;59840;52.122;5.404;2022-10-16T07:51:02;101443.25;;;12.89;91.21
71974;BME280;59840;52.122;5.404;2022-10-16T07:53:29;101442.69;;;12.87;91.05
71974;BME280;59840;52.122;5.404;2022-10-16T07:56:04;101449.84;;;12.86;91.41
71974;BME280;59840;52.122;5.404;2022-10-16T07:58:32;101459.16;;;12.89;91.72
71974;BME280;59840;52.122;5.404;2022-10-16T08:01:03;101464.50;;;12.94;91.55
71974;BME280;59840;52.122;5.404;2022-10-16T08:03:30;101467.78;;;13.01;91.23
71974;BME280;59840;52.122;5.404;2022-10-16T08:05:58;101468.34;;;13.03;91.28
71974;BME280;59840;52.122;5.404;2022-10-16T08:08:25;101467.69;;;13.13;91.25
71974;BME280;59840;52.122;5.404;2022-10-16T08:10:52;101467.03;;;13.22;91.05
71974;BME280;59840;52.122;5.404;2022-10-16T08:13:18;101470.25;;;13.24;90.41
71974;BME280;59840;52.122;5.404;2022-10-16T08:15:45;101466.28;;;13.27;90.34
71974;BME280;59840;52.122;5.404;2022-10-16T08:18:14;101481.53;;;13.36;90.39
71974;BME280;59840;52.122;5.404;2022-10-16T08:20:42;101481.03;;;13.39;89.90
71974;BME280;59840;52.122;5.404;2022-10-16T08:23:10;101473.66;;;13.41;89.75
71974;BME280;59840;52.122;5.404;2022-10-16T08:25:37;101486.50;;;13.55;89.31
71974;BME280;59840;52.122;5.404;2022-10-16T08:28:05;101498.84;;;13.66;89.85
71974;BME280;59840;52.122;5.404;2022-10-16T08:30:32;101488.22;;;13.66;89.03
71974;BME280;59840;52.122;5.404;2022-10-16T08:33:00;101481.94;;;13.72;88.48
71974;BME280;59840;52.122;5.404;2022-10-16T08:35:26;101497.47;;;13.85;88.50
71974;BME280;59840;52.122;5.404;2022-10-16T08:37:53;101501.50;;;13.93;88.18
71974;BME280;59840;52.122;5.404;2022-10-16T08:40:23;101493.28;;;13.94;87.47
71974;BME280;59840;52.122;5.404;2022-10-16T08:48:21;101517.16;;;13.94;87.55
71974;BME280;59840;52.122;5.404;2022-10-16T08:50:51;101518.84;;;14.00;87.39
71974;BME280;59840;52.122;5.404;2022-10-16T08:53:35;101516.72;;;14.02;87.39
71974;BME280;59840;52.122;5.404;2022-10-16T08:56:02;101526.03;;;14.05;86.80
71974;BME280;59840;52.122;5.404;2022-10-16T08:58:30;101534.50;;;14.02;86.38
71974;BME280;59840;52.122;5.404;2022-10-16T09:00:59;101526.16;;;14.15;86.79
71974;BME280;59840;52.122;5.404;2022-10-16T09:04:05;101541.50;;;14.40;86.45
71974;BME280;59840;52.122;5.404;2022-10-16T09:06:45;101543.06;;;14.36;85.54
71974;BME280;59840;52.122;5.404;2022-10-16T09:17:49;101546.94;;;14.50;85.30
71974;BME280;59840;52.122;5.404;2022-10-16T09:20:30;101551.25;;;14.61;85.42
71974;BME280;59840;52.122;5.404;2022-10-16T09:25:32;101562.03;;;14.77;84.90
71974;BME280;59840;52.122;5.404;2022-10-16T09:27:58;101559.97;;;14.84;84.44
71974;BME280;59840;52.122;5.404;2022-10-16T09:30:27;101564.28;;;14.95;83.99
71974;BME280;59840;52.122;5.404;2022-10-16T09:32:57;101565.66;;;15.02;84.14
71974;BME280;59840;52.122;5.404;2022-10-16T09:35:33;101570.75;;;15.09;83.85
71974;BME280;59840;52.122;5.404;2022-10-16T09:38:01;101575.59;;;15.17;83.88
71974;BME280;59840;52.122;5.404;2022-10-16T09:40:36;101572.44;;;15.25;83.52
71974;BME280;59840;52.122;5.404;2022-10-16T09:43:39;101571.47;;;15.41;83.00
71974;BME280;59840;52.122;5.404;2022-10-16T09:46:19;101573.91;;;15.48;81.89
71974;BME280;59840;52.122;5.404;2022-10-16T09:48:49;101577.06;;;15.45;81.66
71974;BME280;59840;52.122;5.404;2022-10-16T09:51:40;101581.88;;;15.48;81.44
71974;BME280;59840;52.122;5.404;2022-10-16T09:56:36;101586.50;;;15.58;81.08
71974;BME280;59840;52.122;5.404;2022-10-16T09:59:22;101590.59;;;15.86;80.60
71974;BME280;59840;52.122;5.404;2022-10-16T10:02:02;101602.63;;;16.08;79.58
71974;BME280;59840;52.122;5.404;2022-10-16T10:04:40;101600.78;;;16.14;78.22
71974;BME280;59840;52.122;5.404;2022-10-16T10:07:17;101606.91;;;16.15;77.98
71974;BME280;59840;52.122;5.404;2022-10-16T10:09:46;101604.00;;;16.16;77.95
71974;BME280;59840;52.122;5.404;2022-10-16T10:12:21;101602.94;;;16.32;77.00
71974;BME280;59840;52.122;5.404;2022-10-16T10:14:55;101595.00;;;16.58;76.87
71974;BME280;59840;52.122;5.404;2022-10-16T10:17:26;101605.41;;;16.74;75.43
71974;BME280;59840;52.122;5.404;2022-10-16T10:19:55;101597.44;;;16.80;75.07
71974;BME280;59840;52.122;5.404;2022-10-16T10:22:40;101602.75;;;16.74;75.23
71974;BME280;59840;52.122;5.404;2022-10-16T10:32:52;101624.63;;;16.97;74.03
71974;BME280;59840;52.122;5.404;2022-10-16T10:41:08;101617.59;;;17.52;72.67
71974;BME280;59840;52.122;5.404;2022-10-16T10:46:54;101631.78;;;17.27;72.98
71974;BME280;59840;52.122;5.404;2022-10-16T11:03:56;101638.47;;;17.29;71.31
71974;BME280;59840;52.122;5.404;2022-10-16T11:09:13;101656.59;;;17.12;69.92
71974;BME280;59840;52.122;5.404;2022-10-16T11:11:45;101657.41;;;16.92;70.18
71974;BME280;59840;52.122;5.404;2022-10-16T11:14:28;101657.66;;;16.81;70.87
71974;BME280;59840;52.122;5.404;2022-10-16T11:36:44;101671.81;;;17.22;72.10
71974;BME280;59840;52.122;5.404;2022-10-16T11:42:58;101679.00;;;17.31;71.92
71974;BME280;59840;52.122;5.404;2022-10-16T11:45:49;101681.41;;;17.28;72.06
71974;BME280;59840;52.122;5.404;2022-10-16T11:51:29;101684.03;;;17.38;68.28
71974;BME280;59840;52.122;5.404;2022-10-16T11:54:50;101684.88;;;17.23;67.44
71974;BME280;59840;52.122;5.404;2022-10-16T11:57:23;101680.34;;;17.14;66.48
71974;BME280;59840;52.122;5.404;2022-10-16T12:09:50;101697.38;;;17.02;65.95
71974;BME280;59840;52.122;5.404;2022-10-16T12:12:27;101701.38;;;17.05;66.57
71974;BME280;59840;52.122;5.404;2022-10-16T12:18:20;101702.72;;;16.82;66.25
71974;BME280;59840;52.122;5.404;2022-10-16T12:20:55;101703.50;;;16.78;66.46
71974;BME280;59840;52.122;5.404;2022-10-16T12:23:25;101698.72;;;16.85;66.75
71974;BME280;59840;52.122;5.404;2022-10-16T12:25:56;101701.94;;;17.12;66.85
71974;BME280;59840;52.122;5.404;2022-10-16T12:28:27;101700.06;;;17.13;66.86
71974;BME280;59840;52.122;5.404;2022-10-16T12:30:57;101707.28;;;17.27;67.58
71974;BME280;59840;52.122;5.404;2022-10-16T12:33:30;101708.84;;;17.38;67.36
71974;BME280;59840;52.122;5.404;2022-10-16T12:35:59;101708.84;;;17.49;67.88
71974;BME280;59840;52.122;5.404;2022-10-16T12:49:58;101709.38;;;17.61;62.29
71974;BME280;59840;52.122;5.404;2022-10-16T12:52:38;101705.09;;;17.55;62.79
71974;BME280;59840;52.122;5.404;2022-10-16T13:15:55;101716.59;;;17.55;62.91
71974;BME280;59840;52.122;5.404;2022-10-16T13:18:43;101719.50;;;17.59;63.02
71974;BME280;59840;52.122;5.404;2022-10-16T13:24:05;101724.03;;;17.68;63.99
71974;BME280;59840;52.122;5.404;2022-10-16T13:34:00;101728.03;;;17.86;65.17
71974;BME280;59840;52.122;5.404;2022-10-16T13:52:05;101748.88;;;17.74;64.16
71974;BME280;59840;52.122;5.404;2022-10-16T13:54:32;101745.97;;;17.65;63.90
71974;BME280;59840;52.122;5.404;2022-10-16T13:57:05;101743.53;;;17.64;64.42
71974;BME280;59840;52.122;5.404;2022-10-16T13:59:52;101745.13;;;17.60;63.96
71974;BME280;59840;52.122;5.404;2022-10-16T14:02:29;101743.53;;;17.59;64.05
71974;BME280;59840;52.122;5.404;2022-10-16T14:04:58;101751.53;;;17.59;64.88
71974;BME280;59840;52.122;5.404;2022-10-16T14:07:32;101757.94;;;17.58;65.22
71974;BME280;59840;52.122;5.404;2022-10-16T14:10:18;101761.69;;;17.57;65.33
71974;BME280;59840;52.122;5.404;2022-10-16T14:12:54;101763.28;;;17.58;64.69
71974;BME280;59840;52.122;5.404;2022-10-16T14:15:21;101764.09;;;17.58;64.87
71974;BME280;59840;52.122;5.404;2022-10-16T14:17:50;101763.00;;;17.59;65.07
71974;BME280;59840;52.122;5.404;2022-10-16T14:20:18;101756.34;;;17.57;65.73
71974;BME280;59840;52.122;5.404;2022-10-16T14:22:46;101751.28;;;17.50;64.94
71974;BME280;59840;52.122;5.404;2022-10-16T14:25:26;101760.88;;;17.46;65.78
71974;BME280;59840;52.122;5.404;2022-10-16T14:27:58;101754.75;;;17.40;65.58
71974;BME280;59840;52.122;5.404;2022-10-16T14:30:34;101758.47;;;17.39;65.88
71974;BME280;59840;52.122;5.404;2022-10-16T14:33:05;101754.75;;;17.40;65.93
71974;BME280;59840;52.122;5.404;2022-10-16T14:35:38;101755.53;;;17.46;66.47
71974;BME280;59840;52.122;5.404;2022-10-16T14:38:06;101756.88;;;17.49;66.91
71974;BME280;59840;52.122;5.404;2022-10-16T14:40:47;101760.06;;;17.51;65.98
71974;BME280;59840;52.122;5.404;2022-10-16T14:43:21;101762.75;;;17.51;67.60
71974;BME280;59840;52.122;5.404;2022-10-16T14:45:55;101763.81;;;17.45;66.85
71974;BME280;59840;52.122;5.404;2022-10-16T14:48:24;101769.69;;;17.41;66.47
71974;BME280;59840;52.122;5.404;2022-10-16T14:50:50;101759.03;;;17.31;65.18
71974;BME280;59840;52.122;5.404;2022-10-16T14:53:17;101759.28;;;17.25;66.73
71974;BME280;59840;52.122;5.404;2022-10-16T14:55:44;101758.75;;;17.23;67.15
71974;BME280;59840;52.122;5.404;2022-10-16T14:58:18;101770.47;;;17.22;67.74
71974;BME280;59840;52.122;5.404;2022-10-16T15:00:45;101769.16;;;17.19;67.07
71974;BME280;59840;52.122;5.404;2022-10-16T15:03:12;101763.53;;;17.11;67.52
71974;BME280;59840;52.122;5.404;2022-10-16T15:05:39;101762.72;;;17.05;69.68
71974;BME280;59840;52.122;5.404;2022-10-16T15:08:05;101760.31;;;16.98;69.96
71974;BME280;59840;52.122;5.404;2022-10-16T15:10:37;101758.19;;;16.95;70.72
71974;BME280;59840;52.122;5.404;2022-10-16T15:13:04;101754.19;;;16.93;70.64
71974;BME280;59840;52.122;5.404;2022-10-16T15:15:40;101750.16;;;16.85;69.38
71974;BME280;59840;52.122;5.404;2022-10-16T15:18:07;101758.69;;;16.82;71.83
71974;BME280;59840;52.122;5.404;2022-10-16T15:20:36;101765.88;;;16.77;71.89
71974;BME280;59840;52.122;5.404;2022-10-16T15:23:05;101751.97;;;16.69;72.18
71974;BME280;59840;52.122;5.404;2022-10-16T15:25:53;101760.47;;;16.61;71.97
71974;BME280;59840;52.122;5.404;2022-10-16T15:28:21;101755.66;;;16.53;71.00
71974;BME280;59840;52.122;5.404;2022-10-16T15:30:53;101763.06;;;16.46;71.84
71974;BME280;59840;52.122;5.404;2022-10-16T15:33:23;101763.56;;;16.38;73.79
71974;BME280;59840;52.122;5.404;2022-10-16T15:35:51;101764.06;;;16.25;75.28
71974;BME280;59840;52.122;5.404;2022-10-16T15:38:19;101771.72;;;16.11;75.24
71974;BME280;59840;52.122;5.404;2022-10-16T15:40:47;101758.59;;;15.99;75.51
71974;BME280;59840;52.122;5.404;2022-10-16T15:43:13;101747.66;;;15.91;76.34
71974;BME280;59840;52.122;5.404;2022-10-16T15:45:40;101755.84;;;15.84;76.34
71974;BME280;59840;52.122;5.404;2022-10-16T15:48:10;101755.25;;;15.77;76.41
71974;BME280;59840;52.122;5.404;2022-10-16T15:50:38;101756.28;;;15.71;76.91
71974;BME280;59840;52.122;5.404;2022-10-16T15:53:05;101764.22;;;15.66;77.46
71974;BME280;59840;52.122;5.404;2022-10-16T15:55:33;101760.72;;;15.60;79.09
71974;BME280;59840;52.122;5.404;2022-10-16T15:58:00;101754.00;;;15.53;79.36
71974;BME280;59840;52.122;5.404;2022-10-16T16:00:26;101755.03;;;15.47;79.02
71974;BME280;59840;52.122;5.404;2022-10-16T16:02:53;101763.75;;;15.42;79.59
71974;BME280;59840;52.122;5.404;2022-10-16T16:05:21;101758.66;;;15.35;79.90
71974;BME280;59840;52.122;5.404;2022-10-16T16:07:49;101761.75;;;15.27;80.43
71974;BME280;59840;52.122;5.404;2022-10-16T16:10:17;101764.66;;;15.21;80.42
71974;BME280;59840;52.122;5.404;2022-10-16T16:12:47;101771.22;;;15.13;81.94
71974;BME280;59840;52.122;5.404;2022-10-16T16:15:20;101772.16;;;15.02;83.38
71974;BME280;59840;52.122;5.404;2022-10-16T16:17:47;101768.66;;;14.96;83.14
71974;BME280;59840;52.122;5.404;2022-10-16T16:20:14;101772.59;;;14.94;83.06
71974;BME280;59840;52.122;5.404;2022-10-16T16:22:41;101779.50;;;14.90;82.86
71974;BME280;59840;52.122;5.404;2022-10-16T16:25:08;101772.53;;;14.84;83.01
71974;BME280;59840;52.122;5.404;2022-10-16T16:27:34;101776.97;;;14.78;82.59
71974;BME280;59840;52.122;5.404;2022-10-16T16:30:01;101762.03;;;14.72;83.07